METAR Data
IDs: Format: Raw Decoded Include TAF

Data at: 0905 UTC 26 Jan 2020

K82C 260855Z AUTO 29008KT 10SM OVC013 00/M02 A2989 RMK AO2 T00001016
K82C 260835Z AUTO 29006KT 10SM BKN013 BKN034 OVC065 00/M02 A2989 RMK AO2 T00001017
K82C 260815Z AUTO 28007KT 10SM BKN013 BKN026 OVC044 00/M02 A2990 RMK AO2 T00001016
K82C 260755Z AUTO 30008KT 7SM BKN011 BKN026 OVC044 00/M01 A2989 RMK AO2 T00001015
K82C 260735Z AUTO 30008KT 10SM OVC011 00/M01 A2989 RMK AO2 T00001013
K82C 260715Z AUTO 30009KT 10SM OVC011 00/M01 A2989 RMK AO2 T00001013
K82C 260655Z AUTO 29007KT 7SM OVC011 00/M01 A2989 RMK AO2 T00001011
K82C 260635Z AUTO 28009KT 4SM -SN OVC009 00/M01 A2989 RMK AO2 T00001008
K82C 260615Z AUTO 29007KT 5SM -SN OVC009 00/00 A2989 RMK AO2 T00011005
K82C 260555Z AUTO 29005KT 10SM OVC009 00/00 A2988 RMK AO2 T00011005 10010 20001 400200001
K82C 260535Z AUTO 28007KT 10SM OVC009 00/M01 A2988 RMK AO2 T00011006
K82C 260515Z AUTO 29007KT 7SM OVC009 00/00 A2988 RMK AO2 T00011005
K82C 260455Z AUTO 29007KT 10SM OVC011 00/00 A2988 RMK AO2 T00021005
K82C 260435Z AUTO 29007KT 10SM OVC009 00/00 A2988 RMK AO2 T00021005
K82C 260415Z AUTO 29007KT 10SM OVC011 00/00 A2988 RMK AO2 T00021005
K82C 260355Z AUTO 29006KT 10SM OVC008 00/00 A2988 RMK AO2 T00021002
K82C 260335Z AUTO 29005KT 5SM -SN OVC008 00/00 A2988 RMK AO2 T00021001
K82C 260315Z AUTO 29005KT 5SM BR OVC008 00/00 A2987 RMK AO2 T00021002
K82C 260255Z AUTO 29008KT 10SM BKN010 BKN023 OVC037 01/00 A2987 RMK AO2 T00051005
K82C 260235Z AUTO 29008KT 10SM BKN014 BKN023 OVC037 01/M01 A2987 RMK AO2 T00061007
K82C 260215Z AUTO 29006KT 10SM OVC016 01/M01 A2987 RMK AO2 T00081006
K82C 260155Z AUTO 29006KT 10SM BKN016 OVC034 01/00 A2987 RMK AO2 T00071005
K82C 260135Z AUTO 30007KT 10SM SCT016 OVC036 01/00 A2987 RMK AO2 T00071003
K82C 260115Z AUTO 29007KT 10SM OVC016 01/00 A2987 RMK AO2 T00101005
K82C 260055Z AUTO 29006KT 10SM OVC014 01/00 A2987 RMK AO2 T00101005
K82C 260035Z AUTO 29007KT 10SM OVC014 01/00 A2987 RMK AO2 T00101003
K82C 260015Z AUTO 29008KT 10SM OVC014 01/00 A2986 RMK AO2 T00101003
K82C 252355Z AUTO 29008KT 10SM OVC012 01/00 A2986 RMK AO2 T00101002 10020 20008
K82C 252335Z AUTO 30008KT 10SM OVC010 01/00 A2985 RMK AO2 T00080000
K82C 252315Z AUTO 30009KT 10SM -SN OVC010 01/00 A2984 RMK AO2 T00090000
K82C 252255Z AUTO 29008KT 10SM OVC008 01/00 A2984 RMK AO2 T00100000
K82C 252235Z AUTO 30010KT 10SM OVC008 01/00 A2983 RMK AO2 T00110000
K82C 252215Z AUTO 30008KT 10SM OVC008 01/00 A2983 RMK AO2 T00110001
K82C 252155Z AUTO 29008KT 10SM BKN010 OVC020 01/00 A2983 RMK AO2 T00140001
K82C 252135Z AUTO 30008KT 10SM SCT013 OVC020 01/00 A2983 RMK AO2 T00130002
K82C 252115Z AUTO 30009KT 10SM BKN013 BKN018 OVC028 02/00 A2982 RMK AO2 T00170000
K82C 252055Z AUTO 30007KT 10SM SCT018 OVC026 02/00 A2982 RMK AO2 T00170000
K82C 252035Z AUTO 30009KT 10SM BKN015 OVC024 02/00 A2982 RMK AO2 T00170000
K82C 252015Z AUTO 31006KT 10SM OVC017 02/00 A2981 RMK AO2 T00171001
K82C 251955Z AUTO 31009KT 10SM BKN017 OVC024 02/00 A2981 RMK AO2 T00181002
K82C 251935Z AUTO 31009KT 10SM BKN017 OVC023 02/00 A2981 RMK AO2 T00171001
K82C 251915Z AUTO 31007KT 10SM SCT014 OVC022 02/00 A2981 RMK AO2 T00150000
K82C 251855Z AUTO 31009KT 10SM BKN014 BKN020 OVC025 02/00 A2981 RMK AO2 T00150000
K82C 251835Z AUTO 31008KT 10SM SCT015 OVC021 01/00 A2982 RMK AO2 T00131001
K82C 251815Z AUTO 31008KT 10SM SCT013 OVC021 01/00 A2982 RMK AO2 T00121001
K82C 251755Z AUTO 31008KT 10SM SCT014 OVC021 02/00 A2982 RMK AO2 T00151004 10015 20004
K82C 251735Z AUTO 31007KT 10SM SCT010 OVC021 01/00 A2982 RMK AO2 T00120000
K82C 251715Z AUTO 31007KT 10SM OVC010 01/00 A2983 RMK AO2 T00100000
K82C 251655Z AUTO 31009KT 10SM BKN012 OVC018 01/00 A2983 RMK AO2 T00100000
K82C 251635Z AUTO 31007KT 10SM OVC012 01/00 A2983 RMK AO2 T00080000
K82C 251615Z AUTO 31009KT 10SM BKN008 OVC014 01/00 A2982 RMK AO2 T00060000
K82C 251555Z AUTO 31007KT 10SM OVC008 01/00 A2982 RMK AO2 T00050000
K82C 251535Z AUTO 31007KT 10SM OVC008 01/00 A2981 RMK AO2 T00060000
K82C 251515Z AUTO 31007KT 4SM -SN OVC008 01/00 A2981 RMK AO2 T00050000
K82C 251455Z AUTO 31007KT 2 1/2SM -SN OVC006 01/00 A2981 RMK AO2 T00050000
K82C 251435Z AUTO 30007KT 2SM -SN OVC006 01/00 A2981 RMK AO2 T00050000
K82C 251415Z AUTO 31008KT 1 1/2SM -SN OVC006 01/00 A2981 RMK AO2 T00050000
K82C 251355Z AUTO 31007KT 2 1/2SM -SN OVC006 01/00 A2981 RMK AO2 T00050000
K82C 251335Z AUTO 31008KT 10SM OVC006 01/00 A2980 RMK AO2 T00050000
K82C 251315Z AUTO 30009KT 5SM -SN OVC006 01/00 A2980 RMK AO2 T00050000
K82C 251255Z AUTO 31009KT 7SM -SN OVC006 01/00 A2980 RMK AO2 T00050000
K82C 251235Z AUTO 31008KT 4SM -SN OVC006 01/00 A2980 RMK AO2 T00050001
K82C 251215Z AUTO 31007KT 4SM -SN OVC006 01/00 A2979 RMK AO2 T00050000
K82C 251155Z AUTO 31008KT 5SM -SN OVC006 01/00 A2979 RMK AO2 70002 T00050000 10006 20003
K82C 251135Z AUTO 31008KT 5SM -SN OVC006 01/00 A2979 RMK AO2 T00050001
K82C 251115Z AUTO 30008KT 7SM -SN OVC004 01/00 A2979 RMK AO2 T00050001
K82C 251055Z AUTO 31007KT 4SM -SN OVC004 01/00 A2979 RMK AO2 T00050001
K82C 251035Z AUTO 31007KT 4SM -SN OVC004 01/00 A2978 RMK AO2 T00050002
K82C 251015Z AUTO 31007KT 3SM -SN OVC004 01/00 A2978 RMK AO2 T00050001
K82C 250955Z AUTO 31006KT 2 1/2SM -SN OVC004 01/00 A2978 RMK AO2 T00050001
K82C 250935Z AUTO 32005KT 4SM -SN OVC006 01/00 A2979 RMK AO2 T00050002
K82C 250915Z AUTO 31006KT 10SM -SN OVC006 01/00 A2979 RMK AO2 T00050002
K82C 250855Z AUTO 31007KT 7SM -SN OVC004 01/00 A2979 RMK AO2 T00050002
K82C 250835Z AUTO 32006KT 4SM -SN OVC004 01/00 A2979 RMK AO2 T00050001
K82C 250815Z AUTO 31007KT 4SM -SN OVC004 01/00 A2979 RMK AO2 T00050001
K82C 250755Z AUTO 31007KT 7SM -SN OVC004 01/00 A2979 RMK AO2 T00050002
K82C 250735Z AUTO 32005KT 7SM -SN OVC004 01/00 A2980 RMK AO2 T00060003
K82C 250715Z AUTO 32006KT 7SM OVC004 01/00 A2980 RMK AO2 T00050003
K82C 250655Z AUTO 31007KT 5SM -SN OVC004 01/00 A2980 RMK AO2 T00050003
K82C 250635Z AUTO 31006KT 3SM -SN OVC004 00/00 A2980 RMK AO2 T00030002
K82C 250615Z AUTO 31005KT 2SM -SN OVC004 00/00 A2981 RMK AO2 T00030002
K82C 250555Z AUTO 31005KT 2 1/2SM -SN OVC004 00/00 A2981 RMK AO2 T00030002 10008 20003 400151010
K82C 250535Z AUTO 31004KT 2SM -SN OVC004 00/00 A2982 RMK AO2 T00030001
K82C 250515Z AUTO 32004KT 2 1/2SM -SN OVC004 01/00 A2982 RMK AO2 T00050002
K82C 250455Z AUTO 33004KT 2 1/2SM -SN OVC004 01/00 A2982 RMK AO2 T00050003
K82C 250435Z AUTO 32005KT 3SM -RA OVC004 01/00 A2982 RMK AO2 T00060003
K82C 250415Z AUTO 32005KT 7SM -SN OVC004 01/01 A2983 RMK AO2 T00070005
K82C 250355Z AUTO 32005KT 7SM OVC004 01/01 A2983 RMK AO2 T00070005
K82C 250335Z AUTO 33004KT 5SM BR OVC004 01/01 A2983 RMK AO2 T00070005
K82C 250315Z AUTO 33004KT 4SM BR OVC004 01/01 A2983 RMK AO2 T00070005
K82C 250255Z AUTO 34004KT 5SM BR OVC004 01/01 A2984 RMK AO2 T00070005
K82C 250235Z AUTO 35003KT 7SM OVC004 01/01 A2984 RMK AO2 T00070005
K82C 250215Z AUTO 34003KT 10SM OVC004 01/00 A2984 RMK AO2 T00070004
K82C 250155Z AUTO 34003KT 7SM OVC004 01/00 A2984 RMK AO2 T00060003
K82C 250135Z AUTO 33004KT 7SM -RA OVC004 01/00 A2985 RMK AO2 T00060003
K82C 250115Z AUTO 34003KT 5SM RA OVC004 01/00 A2985 RMK AO2 T00060004
K82C 250055Z AUTO 33003KT 5SM BR OVC004 01/01 A2985 RMK AO2 T00070005
K82C 250035Z AUTO 34003KT 5SM BR OVC004 01/01 A2985 RMK AO2 T00070005
K82C 250015Z AUTO 34003KT 5SM BR OVC004 01/01 A2985 RMK AO2 T00080005
K82C 242355Z AUTO 35004KT 7SM OVC004 01/01 A2985 RMK AO2 T00080005 10015 20008
K82C 242335Z AUTO 34005KT 7SM OVC004 01/01 A2985 RMK AO2 T00100005
K82C 242315Z AUTO 36004KT 7SM OVC004 01/01 A2985 RMK AO2 T00100005
K82C 242255Z AUTO 35005KT 7SM OVC004 01/01 A2985 RMK AO2 T00100005
K82C 242235Z AUTO 36003KT 7SM OVC004 01/01 A2986 RMK AO2 T00100006
K82C 242215Z AUTO 35004KT 7SM OVC004 01/01 A2986 RMK AO2 T00100005
K82C 242155Z AUTO 36004KT 5SM BR OVC004 01/01 A2986 RMK AO2 T00100006
K82C 242135Z AUTO 36005KT 3SM -DZ OVC004 01/01 A2986 RMK AO2 T00100006
K82C 242115Z AUTO 35003KT 3SM DZ OVC004 01/01 A2986 RMK AO2 T00120007